LUK weather

Cincinnati Municipal Airport Lunken Field
Cincinnati, Ohio, United States

Public forecast

Using degrees Fahrenheit for public forecast. Weather courtesy of forecast.io.

METAR (pilot weather report)

Retrieved 2018/10/23 03:53 UTC (47 minutes ago):

KLUK 230353Z AUTO 00000KT 10SM CLR 07/03 A3016 RMK AO2 SLP214 T00670033

TAF (pilot weather forecast)

Forecast is more than 12 hours old.

Retrieved 2018/10/22 00:22 UTC (1 day ago):

TAF KLUK 222320Z 2300/2324 22005KT P6SM SKC FM231400 30010KT P6SM SKC FM232000 33010KT P6SM FEW040